createdAt,value
2017-01-19T00:00:11.548Z,1027.56
2017-01-19T00:01:11.463Z,1027.53
2017-01-19T00:02:11.632Z,1027.58
2017-01-19T00:03:11.528Z,1027.56
2017-01-19T00:04:11.673Z,1027.55
2017-01-19T00:05:11.488Z,1027.56
2017-01-19T00:06:11.825Z,1027.55
2017-01-19T00:07:11.595Z,1027.53
2017-01-19T00:08:11.647Z,1027.56
2017-01-19T00:09:11.616Z,1027.56
2017-01-19T00:10:11.650Z,1027.57
2017-01-19T00:11:11.968Z,1027.56
2017-01-19T00:12:11.821Z,1027.54
2017-01-19T00:13:11.919Z,1027.5
2017-01-19T00:14:11.724Z,1027.52
2017-01-19T00:15:11.687Z,1027.52
2017-01-19T00:16:11.683Z,1027.55
2017-01-19T00:17:11.945Z,1027.49
2017-01-19T00:18:11.884Z,1027.51
2017-01-19T00:19:11.771Z,1027.52
2017-01-19T00:20:11.849Z,1027.48
2017-01-19T00:21:11.850Z,1027.45
2017-01-19T00:22:11.662Z,1027.44
2017-01-19T00:23:11.816Z,1027.44
2017-01-19T00:24:11.715Z,1027.47
2017-01-19T00:25:11.958Z,1027.52
2017-01-19T00:26:11.712Z,1027.47
2017-01-19T00:27:11.852Z,1027.5
2017-01-19T00:28:11.715Z,1027.49
2017-01-19T00:29:11.756Z,1027.5
2017-01-19T00:30:11.797Z,1027.52
2017-01-19T00:31:11.715Z,1027.52
2017-01-19T00:32:11.694Z,1027.53
2017-01-19T00:33:11.766Z,1027.52
2017-01-19T00:34:11.967Z,1027.52
2017-01-19T00:35:11.745Z,1027.53
2017-01-19T00:36:11.924Z,1027.48
2017-01-19T00:37:11.940Z,1027.49
2017-01-19T00:38:11.812Z,1027.5
2017-01-19T00:39:11.885Z,1027.51
2017-01-19T00:40:11.925Z,1027.51
2017-01-19T00:41:12.019Z,1027.52
2017-01-19T00:42:11.810Z,1027.51
2017-01-19T00:43:12.229Z,1027.53
2017-01-19T00:44:12.049Z,1027.52
2017-01-19T00:45:11.987Z,1027.59
2017-01-19T00:46:12.258Z,1027.58
2017-01-19T00:47:11.960Z,1027.56
2017-01-19T00:48:12.494Z,1027.58
2017-01-19T00:49:11.988Z,1027.63
2017-01-19T00:50:12.621Z,1027.64
2017-01-19T00:51:11.934Z,1027.62
2017-01-19T00:52:12.320Z,1027.61
2017-01-19T00:53:12.360Z,1027.6
2017-01-19T00:54:12.257Z,1027.66
2017-01-19T00:55:12.066Z,1027.58
2017-01-19T00:56:12.064Z,1027.6
2017-01-19T00:57:11.903Z,1027.55
2017-01-19T00:58:12.282Z,1027.56
2017-01-19T00:59:12.070Z,1027.62
2017-01-19T01:00:12.394Z,1027.67
2017-01-19T01:01:12.027Z,1027.67
2017-01-19T01:02:12.228Z,1027.63
2017-01-19T01:03:12.135Z,1027.6
2017-01-19T01:04:12.260Z,1027.61
2017-01-19T01:05:12.225Z,1027.63
2017-01-19T01:06:12.402Z,1027.65
2017-01-19T01:07:12.177Z,1027.67
2017-01-19T01:08:12.119Z,1027.66
2017-01-19T01:09:12.175Z,1027.65
2017-01-19T01:10:12.161Z,1027.7
2017-01-19T01:11:12.151Z,1027.65
2017-01-19T01:12:12.179Z,1027.68
2017-01-19T01:13:12.241Z,1027.71
2017-01-19T01:14:12.175Z,1027.72
2017-01-19T01:15:12.293Z,1027.71
2017-01-19T01:16:12.253Z,1027.74
2017-01-19T01:17:12.134Z,1027.77
2017-01-19T01:18:12.277Z,1027.71
2017-01-19T01:19:12.310Z,1027.76
2017-01-19T01:20:12.078Z,1027.76
2017-01-19T01:21:12.134Z,1027.74
2017-01-19T01:22:12.162Z,1027.78
2017-01-19T01:23:12.299Z,1027.75
2017-01-19T01:24:12.149Z,1027.73
2017-01-19T01:25:12.237Z,1027.74
2017-01-19T01:26:13.775Z,1027.77
2017-01-19T01:27:12.551Z,1027.73
2017-01-19T01:28:12.195Z,1027.71
2017-01-19T01:29:12.551Z,1027.71
2017-01-19T01:30:12.610Z,1027.72
2017-01-19T01:31:12.388Z,1027.79
2017-01-19T01:32:12.249Z,1027.8
2017-01-19T01:33:12.345Z,1027.8
2017-01-19T01:34:12.363Z,1027.79
2017-01-19T01:35:12.641Z,1027.73
2017-01-19T01:36:12.437Z,1027.73
2017-01-19T01:37:12.372Z,1027.72
2017-01-19T01:38:12.437Z,1027.73
2017-01-19T01:39:12.480Z,1027.68
2017-01-19T01:40:12.417Z,1027.7
2017-01-19T01:41:12.563Z,1027.69
2017-01-19T01:42:12.665Z,1027.73
2017-01-19T01:43:12.814Z,1027.69
2017-01-19T01:44:12.797Z,1027.69
2017-01-19T01:45:12.566Z,1027.72
2017-01-19T01:46:12.690Z,1027.73
2017-01-19T01:47:12.816Z,1027.76
2017-01-19T01:48:13.079Z,1027.72
2017-01-19T01:49:12.765Z,1027.75
2017-01-19T01:50:12.515Z,1027.68
2017-01-19T01:51:12.924Z,1027.75
2017-01-19T01:52:12.665Z,1027.72
2017-01-19T01:53:12.510Z,1027.74
2017-01-19T01:54:12.670Z,1027.8
2017-01-19T01:55:12.767Z,1027.76
2017-01-19T01:56:12.817Z,1027.73
2017-01-19T01:57:12.514Z,1027.79
2017-01-19T01:58:12.509Z,1027.77
2017-01-19T01:59:12.628Z,1027.78
2017-01-19T02:00:12.766Z,1027.75
2017-01-19T02:01:12.819Z,1027.8
2017-01-19T02:02:12.626Z,1027.81
2017-01-19T02:03:12.819Z,1027.77
2017-01-19T02:04:12.645Z,1027.73
2017-01-19T02:05:13.244Z,1027.74
2017-01-19T02:06:12.876Z,1027.74
2017-01-19T02:07:12.862Z,1027.76
2017-01-19T02:08:12.662Z,1027.76
2017-01-19T02:09:13.135Z,1027.77
2017-01-19T02:10:12.773Z,1027.73
2017-01-19T02:11:12.649Z,1027.76
2017-01-19T02:12:12.714Z,1027.76
2017-01-19T02:13:12.545Z,1027.74
2017-01-19T02:14:12.686Z,1027.76
2017-01-19T02:15:12.947Z,1027.76
2017-01-19T02:16:12.796Z,1027.76
2017-01-19T02:17:12.733Z,1027.8
2017-01-19T02:18:13.198Z,1027.76
2017-01-19T02:19:12.971Z,1027.75
2017-01-19T02:20:12.833Z,1027.71
2017-01-19T02:21:12.845Z,1027.76
2017-01-19T02:22:12.834Z,1027.78
2017-01-19T02:23:12.827Z,1027.75
2017-01-19T02:24:13.364Z,1027.8
2017-01-19T02:25:13.195Z,1027.84
2017-01-19T02:26:12.957Z,1027.81
2017-01-19T02:27:13.089Z,1027.79
2017-01-19T02:28:12.915Z,1027.81
2017-01-19T02:29:13.700Z,1027.81
2017-01-19T02:30:12.845Z,1027.84
2017-01-19T02:31:13.458Z,1027.83
2017-01-19T02:32:12.910Z,1027.83
2017-01-19T02:33:13.346Z,1027.82
2017-01-19T02:34:12.918Z,1027.8
2017-01-19T02:35:12.996Z,1027.8
2017-01-19T02:36:12.906Z,1027.76
2017-01-19T02:37:13.023Z,1027.79
2017-01-19T02:38:12.934Z,1027.8
2017-01-19T02:39:12.978Z,1027.85
2017-01-19T02:40:12.975Z,1027.81
2017-01-19T02:41:12.976Z,1027.81
2017-01-19T02:42:12.863Z,1027.85
2017-01-19T02:43:13.237Z,1027.8
2017-01-19T02:44:13.101Z,1027.78
2017-01-19T02:45:13.286Z,1027.77
2017-01-19T02:46:13.155Z,1027.77
2017-01-19T02:47:13.395Z,1027.75
2017-01-19T02:48:13.059Z,1027.8
2017-01-19T02:49:13.032Z,1027.79
2017-01-19T02:50:13.222Z,1027.78
2017-01-19T02:51:13.111Z,1027.75
2017-01-19T02:52:13.299Z,1027.8
2017-01-19T02:53:13.283Z,1027.78
2017-01-19T02:54:13.251Z,1027.82
2017-01-19T02:55:13.165Z,1027.83
2017-01-19T02:56:13.133Z,1027.83
2017-01-19T02:57:13.181Z,1027.89
2017-01-19T02:58:13.240Z,1027.86
2017-01-19T02:59:13.196Z,1027.88
2017-01-19T03:00:13.005Z,1027.87
2017-01-19T03:01:13.298Z,1027.94
2017-01-19T03:02:13.051Z,1027.94
2017-01-19T03:03:13.007Z,1027.94
2017-01-19T03:04:13.402Z,1027.92
2017-01-19T03:05:13.205Z,1027.96
2017-01-19T03:06:13.142Z,1027.95
2017-01-19T03:07:13.286Z,1028
2017-01-19T03:08:13.309Z,1027.99
2017-01-19T03:09:13.241Z,1028
2017-01-19T03:10:13.596Z,1028.04
2017-01-19T03:11:13.327Z,1028.06
2017-01-19T03:12:13.463Z,1028.01
2017-01-19T03:13:13.245Z,1028.02
2017-01-19T03:14:13.584Z,1028.05
2017-01-19T03:15:13.341Z,1028.06
2017-01-19T03:16:13.288Z,1028
2017-01-19T03:17:13.695Z,1028.01
2017-01-19T03:18:13.600Z,1027.99
2017-01-19T03:19:13.416Z,1027.98
2017-01-19T03:20:13.398Z,1027.98
2017-01-19T03:21:13.576Z,1027.95
2017-01-19T03:22:13.483Z,1027.98
2017-01-19T03:23:13.545Z,1027.97
2017-01-19T03:24:13.500Z,1027.94
2017-01-19T03:25:13.969Z,1027.94
2017-01-19T03:26:13.444Z,1027.9
2017-01-19T03:27:13.515Z,1027.89
2017-01-19T03:28:13.708Z,1027.89
2017-01-19T03:29:13.423Z,1027.88
2017-01-19T03:30:13.544Z,1027.85
2017-01-19T03:31:13.604Z,1027.86
2017-01-19T03:32:13.478Z,1027.89
2017-01-19T03:33:13.635Z,1027.89
2017-01-19T03:34:13.338Z,1027.86
2017-01-19T03:35:13.670Z,1027.88
2017-01-19T03:36:13.414Z,1027.82
2017-01-19T03:37:13.379Z,1027.82
2017-01-19T03:38:13.823Z,1027.84
2017-01-19T03:39:13.580Z,1027.83
2017-01-19T03:40:13.764Z,1027.83
2017-01-19T03:41:13.429Z,1027.85
2017-01-19T03:42:13.611Z,1027.86
2017-01-19T03:43:13.538Z,1027.84
2017-01-19T03:44:13.550Z,1027.82
2017-01-19T03:45:13.417Z,1027.78
2017-01-19T03:46:13.650Z,1027.78
2017-01-19T03:47:13.542Z,1027.77
2017-01-19T03:48:13.834Z,1027.73
2017-01-19T03:49:13.391Z,1027.76
2017-01-19T03:50:13.869Z,1027.72
2017-01-19T03:51:13.504Z,1027.71
2017-01-19T03:52:13.810Z,1027.72
2017-01-19T03:53:13.689Z,1027.73
2017-01-19T03:54:13.775Z,1027.74
2017-01-19T03:55:13.575Z,1027.71
2017-01-19T03:56:13.725Z,1027.77
2017-01-19T03:57:14.225Z,1027.73
2017-01-19T03:58:13.488Z,1027.76
2017-01-19T03:59:13.596Z,1027.73
2017-01-19T04:00:13.675Z,1027.71
2017-01-19T04:01:13.676Z,1027.79
2017-01-19T04:02:13.913Z,1027.77
2017-01-19T04:03:14.036Z,1027.77
2017-01-19T04:04:13.625Z,1027.79
2017-01-19T04:05:13.668Z,1027.79
2017-01-19T04:06:13.773Z,1027.83
2017-01-19T04:07:13.788Z,1027.75
2017-01-19T04:08:13.690Z,1027.75
2017-01-19T04:09:13.903Z,1027.74
2017-01-19T04:10:13.766Z,1027.78
2017-01-19T04:11:13.840Z,1027.77
2017-01-19T04:12:13.803Z,1027.77
2017-01-19T04:13:13.608Z,1027.84
2017-01-19T04:14:13.724Z,1027.83
2017-01-19T04:15:13.639Z,1027.81
2017-01-19T04:16:14.029Z,1027.8
2017-01-19T04:17:13.712Z,1027.79
2017-01-19T04:18:13.986Z,1027.81
2017-01-19T04:19:13.747Z,1027.76
2017-01-19T04:20:13.864Z,1027.76
2017-01-19T04:21:13.935Z,1027.73
2017-01-19T04:22:13.802Z,1027.73
2017-01-19T04:23:13.757Z,1027.76
2017-01-19T04:24:13.914Z,1027.74
2017-01-19T04:25:13.844Z,1027.73
2017-01-19T04:26:14.379Z,1027.69
2017-01-19T04:27:13.842Z,1027.74
2017-01-19T04:28:13.890Z,1027.72
2017-01-19T04:29:13.854Z,1027.74
2017-01-19T04:30:13.816Z,1027.67
2017-01-19T04:31:13.837Z,1027.7
2017-01-19T04:32:13.958Z,1027.66
2017-01-19T04:33:13.940Z,1027.64
2017-01-19T04:34:14.130Z,1027.63
2017-01-19T04:35:14.303Z,1027.63
2017-01-19T04:36:14.343Z,1027.61
2017-01-19T04:37:13.937Z,1027.63
2017-01-19T04:38:13.859Z,1027.65
2017-01-19T04:39:14.058Z,1027.57
2017-01-19T04:40:13.930Z,1027.55
2017-01-19T04:41:14.046Z,1027.57
2017-01-19T04:42:14.300Z,1027.56
2017-01-19T04:43:14.150Z,1027.57
2017-01-19T04:44:14.246Z,1027.58
2017-01-19T04:45:13.990Z,1027.51
2017-01-19T04:46:14.301Z,1027.57
2017-01-19T04:47:14.113Z,1027.55
2017-01-19T04:48:14.076Z,1027.53
2017-01-19T04:49:14.418Z,1027.59
2017-01-19T04:50:14.037Z,1027.57
2017-01-19T04:51:14.309Z,1027.55
2017-01-19T04:52:14.248Z,1027.47
2017-01-19T04:53:14.144Z,1027.45
2017-01-19T04:54:14.040Z,1027.46
2017-01-19T04:55:14.125Z,1027.52
2017-01-19T04:56:14.109Z,1027.49
2017-01-19T04:57:14.375Z,1027.49
2017-01-19T04:58:14.278Z,1027.47
2017-01-19T04:59:14.141Z,1027.47
2017-01-19T05:00:14.467Z,1027.5
2017-01-19T05:01:14.487Z,1027.5
2017-01-19T05:02:14.145Z,1027.46
2017-01-19T05:03:14.261Z,1027.46
2017-01-19T05:04:14.167Z,1027.43
2017-01-19T05:05:14.186Z,1027.4
2017-01-19T05:06:14.307Z,1027.37
2017-01-19T05:07:14.126Z,1027.34
2017-01-19T05:08:14.142Z,1027.35
2017-01-19T05:09:14.276Z,1027.37
2017-01-19T05:10:14.607Z,1027.39
2017-01-19T05:11:14.471Z,1027.37
2017-01-19T05:12:14.397Z,1027.32
2017-01-19T05:13:14.630Z,1027.34
2017-01-19T05:14:14.259Z,1027.37
2017-01-19T05:15:14.534Z,1027.32
2017-01-19T05:16:14.360Z,1027.31
2017-01-19T05:17:14.436Z,1027.3
2017-01-19T05:18:14.507Z,1027.28
2017-01-19T05:19:14.449Z,1027.27
2017-01-19T05:20:14.408Z,1027.17
2017-01-19T05:21:14.301Z,1027.12
2017-01-19T05:22:14.324Z,1027.12
2017-01-19T05:23:14.524Z,1027.13
2017-01-19T05:24:14.604Z,1027.13
2017-01-19T05:25:14.325Z,1027.1
2017-01-19T05:26:14.427Z,1027.08
2017-01-19T05:27:14.335Z,1027.09
2017-01-19T05:28:14.903Z,1027.07
2017-01-19T05:29:14.351Z,1027.08
2017-01-19T05:30:14.457Z,1027.13
2017-01-19T05:31:14.686Z,1027.12
2017-01-19T05:32:15.046Z,1027.15
2017-01-19T05:33:14.377Z,1027.15
2017-01-19T05:34:15.018Z,1027.14
2017-01-19T05:35:14.498Z,1027.1
2017-01-19T05:36:14.646Z,1027.09
2017-01-19T05:37:14.759Z,1027.16
2017-01-19T05:38:14.432Z,1027.17
2017-01-19T05:39:14.619Z,1027.15
2017-01-19T05:40:14.410Z,1027.16
2017-01-19T05:41:14.622Z,1027.18
2017-01-19T05:42:14.619Z,1027.22
2017-01-19T05:43:14.666Z,1027.19
2017-01-19T05:44:14.460Z,1027.19
2017-01-19T05:45:14.645Z,1027.16
2017-01-19T05:46:14.715Z,1027.16
2017-01-19T05:47:14.465Z,1027.14
2017-01-19T05:48:14.592Z,1027.14
2017-01-19T05:49:14.734Z,1027.1
2017-01-19T05:50:14.593Z,1027.09
2017-01-19T05:51:14.806Z,1027.14
2017-01-19T05:52:14.589Z,1027.12
2017-01-19T05:53:14.814Z,1027.18
2017-01-19T05:54:14.727Z,1027.18
2017-01-19T05:55:15.019Z,1027.13
2017-01-19T05:56:14.675Z,1027.13
2017-01-19T05:57:14.746Z,1027.14
2017-01-19T05:58:14.830Z,1027.1
2017-01-19T05:59:15.067Z,1027.1
2017-01-19T06:00:14.925Z,1027.12
2017-01-19T06:01:14.870Z,1027.11
2017-01-19T06:02:15.111Z,1027.1
2017-01-19T06:03:15.182Z,1027.12
2017-01-19T06:04:14.717Z,1027.13
2017-01-19T06:05:14.676Z,1027.13
2017-01-19T06:06:15.010Z,1027.07
2017-01-19T06:07:14.829Z,1027.12
2017-01-19T06:08:14.866Z,1027.1
2017-01-19T06:09:14.934Z,1027.11
2017-01-19T06:10:15.123Z,1027.16
2017-01-19T06:11:15.188Z,1027.17
2017-01-19T06:12:14.790Z,1027.19
2017-01-19T06:13:14.909Z,1027.17
2017-01-19T06:14:14.935Z,1027.19
2017-01-19T06:15:15.579Z,1027.16
2017-01-19T06:16:15.104Z,1027.14
2017-01-19T06:17:14.805Z,1027.16
2017-01-19T06:18:14.871Z,1027.14
2017-01-19T06:19:15.006Z,1027.11
2017-01-19T06:20:15.831Z,1027.07
2017-01-19T06:21:15.351Z,1027.11
2017-01-19T06:22:14.805Z,1027.12
2017-01-19T06:23:14.803Z,1027.12
2017-01-19T06:24:15.124Z,1027.11
2017-01-19T06:25:15.600Z,1027.1
2017-01-19T06:26:15.029Z,1027.1
2017-01-19T06:27:14.875Z,1027.12
2017-01-19T06:28:15.194Z,1027.1
2017-01-19T06:29:14.916Z,1027.06
2017-01-19T06:30:14.913Z,1027.03
2017-01-19T06:31:14.901Z,1027.06
2017-01-19T06:32:15.722Z,1027.09
2017-01-19T06:33:14.955Z,1027.08
2017-01-19T06:34:15.218Z,1027.06
2017-01-19T06:35:15.106Z,1027.07
2017-01-19T06:36:14.923Z,1027.11
2017-01-19T06:37:15.113Z,1027.19
2017-01-19T06:38:15.138Z,1027.17
2017-01-19T06:39:15.342Z,1027.16
2017-01-19T06:40:15.272Z,1027.15
2017-01-19T06:41:15.175Z,1027.2
2017-01-19T06:42:14.953Z,1027.25
2017-01-19T06:43:14.988Z,1027.23
2017-01-19T06:44:15.129Z,1027.24
2017-01-19T06:45:15.204Z,1027.28
2017-01-19T06:46:15.189Z,1027.23
2017-01-19T06:47:15.088Z,1027.22
2017-01-19T06:48:15.766Z,1027.21
2017-01-19T06:49:15.382Z,1027.25
2017-01-19T06:50:15.159Z,1027.27
2017-01-19T06:51:15.124Z,1027.26
2017-01-19T06:52:15.931Z,1027.24
2017-01-19T06:53:15.409Z,1027.3
2017-01-19T06:54:15.347Z,1027.3
2017-01-19T06:55:15.604Z,1027.33
2017-01-19T06:56:15.497Z,1027.38
2017-01-19T06:57:15.421Z,1027.36
2017-01-19T06:58:15.287Z,1027.35
2017-01-19T06:59:15.412Z,1027.35
2017-01-19T07:00:15.574Z,1027.35
2017-01-19T07:01:15.378Z,1027.31
2017-01-19T07:02:15.381Z,1027.31
2017-01-19T07:03:15.606Z,1027.36
2017-01-19T07:04:15.540Z,1027.36
2017-01-19T07:05:15.570Z,1027.38
2017-01-19T07:06:15.392Z,1027.35
2017-01-19T07:07:15.545Z,1027.37
2017-01-19T07:08:15.517Z,1027.38
2017-01-19T07:09:15.429Z,1027.39
2017-01-19T07:10:15.223Z,1027.44
2017-01-19T07:11:15.289Z,1027.41
2017-01-19T07:12:15.660Z,1027.44
2017-01-19T07:13:15.495Z,1027.51
2017-01-19T07:14:15.460Z,1027.55
2017-01-19T07:15:15.442Z,1027.53
2017-01-19T07:16:15.478Z,1027.52
2017-01-19T07:17:15.473Z,1027.54
2017-01-19T07:18:17.408Z,1027.53
2017-01-19T07:19:15.587Z,1027.49
2017-01-19T07:20:15.746Z,1027.53
2017-01-19T07:21:15.487Z,1027.55
2017-01-19T07:22:15.551Z,1027.57
2017-01-19T07:23:15.428Z,1027.6
2017-01-19T07:24:15.789Z,1027.58
2017-01-19T07:25:15.521Z,1027.62
2017-01-19T07:26:15.390Z,1027.65
2017-01-19T07:27:15.940Z,1027.64
2017-01-19T07:28:15.456Z,1027.64
2017-01-19T07:29:15.532Z,1027.61
2017-01-19T07:30:15.437Z,1027.64
2017-01-19T07:31:15.641Z,1027.68
2017-01-19T07:32:15.687Z,1027.65
2017-01-19T07:33:15.492Z,1027.63
2017-01-19T07:34:15.433Z,1027.63
2017-01-19T07:35:15.454Z,1027.65
2017-01-19T07:36:15.466Z,1027.66
2017-01-19T07:37:15.455Z,1027.64
2017-01-19T07:38:16.042Z,1027.68
2017-01-19T07:39:15.488Z,1027.68
2017-01-19T07:40:15.734Z,1027.67
2017-01-19T07:41:15.598Z,1027.66
2017-01-19T07:42:15.653Z,1027.69
2017-01-19T07:43:15.510Z,1027.68
2017-01-19T07:44:15.728Z,1027.63
2017-01-19T07:45:15.635Z,1027.69
2017-01-19T07:46:15.725Z,1027.67
2017-01-19T07:47:16.104Z,1027.65
2017-01-19T07:48:15.830Z,1027.69
2017-01-19T07:49:15.707Z,1027.67
2017-01-19T07:50:15.925Z,1027.69
2017-01-19T07:51:15.924Z,1027.68
2017-01-19T07:52:15.716Z,1027.68
2017-01-19T07:53:15.599Z,1027.67
2017-01-19T07:54:15.805Z,1027.68
2017-01-19T07:55:15.832Z,1027.71
2017-01-19T07:56:16.026Z,1027.69
2017-01-19T07:57:15.853Z,1027.68
2017-01-19T07:58:16.335Z,1027.73
2017-01-19T07:59:16.092Z,1027.76
2017-01-19T08:00:15.815Z,1027.76
2017-01-19T08:01:15.978Z,1027.74
2017-01-19T08:02:16.092Z,1027.76
2017-01-19T08:03:16.034Z,1027.76
2017-01-19T08:04:16.118Z,1027.76
2017-01-19T08:05:15.760Z,1027.72
2017-01-19T08:06:15.946Z,1027.74
2017-01-19T08:07:15.944Z,1027.77
2017-01-19T08:08:16.013Z,1027.79
2017-01-19T08:09:16.024Z,1027.74
2017-01-19T08:10:15.826Z,1027.75
2017-01-19T08:11:15.957Z,1027.75
2017-01-19T08:12:15.973Z,1027.79
2017-01-19T08:13:15.961Z,1027.79
2017-01-19T08:14:16.030Z,1027.8
2017-01-19T08:15:16.072Z,1027.85
2017-01-19T08:16:15.819Z,1027.91
2017-01-19T08:17:16.352Z,1027.91
2017-01-19T08:18:15.996Z,1027.95
2017-01-19T08:19:15.962Z,1027.9
2017-01-19T08:20:16.100Z,1027.91
2017-01-19T08:21:15.958Z,1027.93
2017-01-19T08:22:15.984Z,1027.93
2017-01-19T08:23:16.070Z,1027.94
2017-01-19T08:24:15.998Z,1027.99
2017-01-19T08:25:16.227Z,1028.04
2017-01-19T08:26:16.181Z,1028.07
2017-01-19T08:27:16.030Z,1028.07
2017-01-19T08:28:16.025Z,1028.06
2017-01-19T08:29:16.158Z,1028.07
2017-01-19T08:30:15.919Z,1028.03
2017-01-19T08:31:15.972Z,1028.01
2017-01-19T08:32:16.245Z,1028.02
2017-01-19T08:33:16.229Z,1027.98
2017-01-19T08:34:16.221Z,1027.97
2017-01-19T08:35:16.481Z,1027.95
2017-01-19T08:36:16.602Z,1027.98
2017-01-19T08:37:16.915Z,1027.96
2017-01-19T08:38:16.367Z,1027.91
2017-01-19T08:39:16.168Z,1027.93
2017-01-19T08:40:16.361Z,1027.96
2017-01-19T08:41:16.345Z,1027.95
2017-01-19T08:42:16.503Z,1027.98
2017-01-19T08:43:16.269Z,1027.99
2017-01-19T08:44:16.282Z,1028.01
2017-01-19T08:45:16.228Z,1028.02
2017-01-19T08:46:16.300Z,1028.01
2017-01-19T08:47:16.426Z,1027.99
2017-01-19T08:48:16.212Z,1027.99
2017-01-19T08:49:16.184Z,1027.99
2017-01-19T08:50:16.342Z,1027.99
2017-01-19T08:51:16.602Z,1027.98
2017-01-19T08:52:16.378Z,1027.99
2017-01-19T08:53:16.557Z,1028
2017-01-19T08:54:16.320Z,1027.98
2017-01-19T08:55:16.378Z,1027.98
2017-01-19T08:56:16.569Z,1027.99
2017-01-19T08:57:16.368Z,1027.99
2017-01-19T08:58:16.919Z,1028
2017-01-19T08:59:16.308Z,1028.03
2017-01-19T09:00:16.363Z,1028.02
2017-01-19T09:01:16.406Z,1028.03
2017-01-19T09:02:16.343Z,1028.01
2017-01-19T09:03:16.535Z,1027.99
2017-01-19T09:04:16.322Z,1028.03
2017-01-19T09:05:16.444Z,1028.04
2017-01-19T09:06:16.521Z,1028.05
2017-01-19T09:07:16.610Z,1028.05
2017-01-19T09:08:16.706Z,1028.04
2017-01-19T09:09:16.830Z,1028.07
2017-01-19T09:10:16.578Z,1028.06
2017-01-19T09:11:16.555Z,1028.02
2017-01-19T09:12:16.470Z,1028.01
2017-01-19T09:13:16.408Z,1028.04
2017-01-19T09:14:16.633Z,1028.13
2017-01-19T09:15:16.551Z,1028.13
2017-01-19T09:16:16.575Z,1028.13
2017-01-19T09:17:17.421Z,1028.1
2017-01-19T09:18:16.546Z,1028.03
2017-01-19T09:19:16.583Z,1028.06
2017-01-19T09:20:16.429Z,1027.98
2017-01-19T09:21:16.387Z,1027.98
2017-01-19T09:22:16.667Z,1028.05
2017-01-19T09:23:16.616Z,1028.1
2017-01-19T09:24:16.979Z,1028.05
2017-01-19T09:25:17.111Z,1028.08
2017-01-19T09:26:16.663Z,1028.08
2017-01-19T09:27:17.051Z,1028.12
2017-01-19T09:28:16.886Z,1028.17
2017-01-19T09:29:16.570Z,1028.17
2017-01-19T09:30:16.601Z,1028.19
2017-01-19T09:31:16.739Z,1028.18
2017-01-19T09:32:17.080Z,1028.19
2017-01-19T09:33:16.861Z,1028.2
2017-01-19T09:34:16.719Z,1028.14
2017-01-19T09:35:17.371Z,1028.17
2017-01-19T09:36:16.859Z,1028.14
2017-01-19T09:37:17.113Z,1028.17
2017-01-19T09:38:17.048Z,1028.16
2017-01-19T09:39:16.700Z,1028.18
2017-01-19T09:40:16.682Z,1028.14
2017-01-19T09:41:16.926Z,1028.13
2017-01-19T09:42:16.728Z,1028.15
2017-01-19T09:43:16.847Z,1028.16
2017-01-19T09:44:16.884Z,1028.12
2017-01-19T09:45:17.080Z,1028.18
2017-01-19T09:46:16.921Z,1028.12
2017-01-19T09:47:17.002Z,1028.14
2017-01-19T09:48:16.899Z,1028.11
2017-01-19T09:49:17.024Z,1028.07
2017-01-19T09:50:16.969Z,1028.1
2017-01-19T09:51:16.735Z,1028.12
2017-01-19T09:52:17.083Z,1028.11
2017-01-19T09:53:17.238Z,1028.11
2017-01-19T09:54:17.084Z,1028.08
2017-01-19T09:55:17.211Z,1028.05
2017-01-19T09:56:17.066Z,1028.02
2017-01-19T09:57:17.375Z,1028.01
2017-01-19T09:58:17.278Z,1027.99
2017-01-19T09:59:17.395Z,1027.95
2017-01-19T10:00:17.125Z,1027.92
2017-01-19T10:01:17.425Z,1027.95
2017-01-19T10:02:17.310Z,1027.93
2017-01-19T10:03:17.124Z,1027.96
2017-01-19T10:04:17.052Z,1027.92
2017-01-19T10:05:16.991Z,1027.89
2017-01-19T10:06:17.031Z,1027.85
2017-01-19T10:07:17.254Z,1027.84
2017-01-19T10:08:17.067Z,1027.89
2017-01-19T10:09:17.466Z,1027.86
2017-01-19T10:10:17.887Z,1027.88
2017-01-19T10:11:17.493Z,1027.9
2017-01-19T10:12:17.254Z,1027.91
2017-01-19T10:13:17.460Z,1027.92
2017-01-19T10:14:17.510Z,1027.94
2017-01-19T10:15:17.158Z,1027.87
2017-01-19T10:16:17.380Z,1027.83
2017-01-19T10:17:17.307Z,1027.88
2017-01-19T10:18:17.529Z,1027.83
2017-01-19T10:19:17.271Z,1027.8
2017-01-19T10:20:17.355Z,1027.8
2017-01-19T10:21:17.277Z,1027.77
2017-01-19T10:22:17.238Z,1027.82
2017-01-19T10:23:17.338Z,1027.81
2017-01-19T10:24:17.304Z,1027.83
2017-01-19T10:25:17.335Z,1027.84
2017-01-19T10:26:17.494Z,1027.82
2017-01-19T10:27:17.241Z,1027.87
2017-01-19T10:28:17.624Z,1027.86
2017-01-19T10:29:17.351Z,1027.86
2017-01-19T10:30:17.522Z,1027.87
2017-01-19T10:31:17.696Z,1027.86
2017-01-19T10:32:17.289Z,1027.9
2017-01-19T10:33:17.343Z,1027.86
2017-01-19T10:34:17.670Z,1027.88
2017-01-19T10:35:17.489Z,1027.89
2017-01-19T10:36:17.322Z,1027.84
2017-01-19T10:37:17.445Z,1027.84
2017-01-19T10:38:17.662Z,1027.78
2017-01-19T10:39:17.565Z,1027.8
2017-01-19T10:40:17.737Z,1027.79
2017-01-19T10:41:17.409Z,1027.76
2017-01-19T10:42:17.422Z,1027.73
2017-01-19T10:43:18.009Z,1027.77
2017-01-19T10:44:17.732Z,1027.76
2017-01-19T10:45:17.594Z,1027.8
2017-01-19T10:46:17.632Z,1027.79
2017-01-19T10:47:17.546Z,1027.77
2017-01-19T10:48:17.685Z,1027.71
2017-01-19T10:49:17.485Z,1027.76
2017-01-19T10:50:17.482Z,1027.75
2017-01-19T10:51:17.541Z,1027.74
2017-01-19T10:52:17.624Z,1027.73
2017-01-19T10:53:17.509Z,1027.78
2017-01-19T10:54:17.903Z,1027.78
2017-01-19T10:55:17.781Z,1027.74
2017-01-19T10:56:17.701Z,1027.81
2017-01-19T10:57:17.606Z,1027.81
2017-01-19T10:58:17.713Z,1027.77
2017-01-19T10:59:17.709Z,1027.81
2017-01-19T11:00:19.016Z,1027.73
2017-01-19T11:01:17.763Z,1027.76
2017-01-19T11:02:17.841Z,1027.74
2017-01-19T11:03:18.037Z,1027.72
2017-01-19T11:04:18.294Z,1027.75
2017-01-19T11:05:18.183Z,1027.71
2017-01-19T11:06:17.977Z,1027.69
2017-01-19T11:07:17.842Z,1027.63
2017-01-19T11:08:18.117Z,1027.58
2017-01-19T11:09:18.191Z,1027.61
2017-01-19T11:10:17.914Z,1027.55
2017-01-19T11:11:18.300Z,1027.5
2017-01-19T11:12:17.753Z,1027.52
2017-01-19T11:13:17.761Z,1027.46
2017-01-19T11:14:18.426Z,1027.48
2017-01-19T11:15:17.970Z,1027.45
2017-01-19T11:16:18.227Z,1027.52
2017-01-19T11:17:18.248Z,1027.48
2017-01-19T11:18:17.821Z,1027.47
2017-01-19T11:19:18.231Z,1027.42
2017-01-19T11:20:18.139Z,1027.42
2017-01-19T11:21:17.900Z,1027.35
2017-01-19T11:22:18.052Z,1027.39
2017-01-19T11:23:17.899Z,1027.35
2017-01-19T11:24:17.923Z,1027.36
2017-01-19T11:25:18.294Z,1027.35
2017-01-19T11:26:18.178Z,1027.34
2017-01-19T11:27:18.040Z,1027.38
2017-01-19T11:28:18.117Z,1027.36
2017-01-19T11:29:18.085Z,1027.3
2017-01-19T11:30:18.547Z,1027.29
2017-01-19T11:31:18.247Z,1027.31
2017-01-19T11:32:18.077Z,1027.29
2017-01-19T11:33:18.211Z,1027.26
2017-01-19T11:34:18.121Z,1027.26
2017-01-19T11:35:18.212Z,1027.31
2017-01-19T11:36:18.909Z,1027.26
2017-01-19T11:37:18.184Z,1027.25
2017-01-19T11:38:18.541Z,1027.25
2017-01-19T11:39:18.140Z,1027.24
2017-01-19T11:40:18.152Z,1027.22
2017-01-19T11:41:18.368Z,1027.23
2017-01-19T11:42:18.402Z,1027.22
2017-01-19T11:43:18.675Z,1027.19
2017-01-19T11:44:18.280Z,1027.2
2017-01-19T11:45:18.463Z,1027.17
2017-01-19T11:46:18.350Z,1027.13
2017-01-19T11:47:18.538Z,1027.11
2017-01-19T11:48:18.373Z,1027.11
2017-01-19T11:49:18.521Z,1027.11
2017-01-19T11:50:18.486Z,1027.09
2017-01-19T11:51:18.522Z,1027.07
2017-01-19T11:52:18.476Z,1027.04
2017-01-19T11:53:18.468Z,1027.03
2017-01-19T11:54:18.523Z,1027.03
2017-01-19T11:55:18.639Z,1027.03
2017-01-19T11:56:18.459Z,1027.05
2017-01-19T11:57:18.444Z,1026.97
2017-01-19T11:58:18.444Z,1026.95
2017-01-19T11:59:18.450Z,1026.94
2017-01-19T12:00:18.483Z,1026.92
2017-01-19T12:01:18.617Z,1026.93
2017-01-19T12:02:18.526Z,1026.89
2017-01-19T12:03:18.560Z,1026.89
2017-01-19T12:04:18.600Z,1026.91
2017-01-19T12:05:18.811Z,1026.85
2017-01-19T12:06:18.601Z,1026.8
2017-01-19T12:07:18.734Z,1026.78
2017-01-19T12:08:18.642Z,1026.8